sensor_id;sensor_type;location;lat;lon;timestamp;P1;durP1;ratioP1;P2;durP2;ratioP2
20391;SDS011;10355;53.688;10.078;2023-05-10T00:02:14;3.17;;;2.15;;
20391;SDS011;10355;53.688;10.078;2023-05-10T00:04:57;5.07;;;2.10;;
20391;SDS011;10355;53.688;10.078;2023-05-10T00:07:39;4.90;;;2.35;;
20391;SDS011;10355;53.688;10.078;2023-05-10T00:10:27;3.55;;;2.50;;
20391;SDS011;10355;53.688;10.078;2023-05-10T00:13:10;3.35;;;2.30;;
20391;SDS011;10355;53.688;10.078;2023-05-10T00:15:52;3.67;;;2.22;;
20391;SDS011;10355;53.688;10.078;2023-05-10T00:18:35;7.13;;;2.38;;
20391;SDS011;10355;53.688;10.078;2023-05-10T00:21:18;5.38;;;2.60;;
20391;SDS011;10355;53.688;10.078;2023-05-10T00:24:00;4.05;;;2.40;;
20391;SDS011;10355;53.688;10.078;2023-05-10T00:26:44;4.53;;;2.40;;
20391;SDS011;10355;53.688;10.078;2023-05-10T00:29:27;4.05;;;2.40;;
20391;SDS011;10355;53.688;10.078;2023-05-10T00:32:10;4.65;;;2.25;;
20391;SDS011;10355;53.688;10.078;2023-05-10T00:34:53;3.80;;;2.30;;
20391;SDS011;10355;53.688;10.078;2023-05-10T00:37:36;3.47;;;2.50;;
20391;SDS011;10355;53.688;10.078;2023-05-10T00:40:19;3.30;;;2.22;;
20391;SDS011;10355;53.688;10.078;2023-05-10T00:43:08;2.55;;;1.90;;
20391;SDS011;10355;53.688;10.078;2023-05-10T00:45:51;4.00;;;2.38;;
20391;SDS011;10355;53.688;10.078;2023-05-10T00:48:33;4.80;;;2.50;;
20391;SDS011;10355;53.688;10.078;2023-05-10T00:51:17;4.35;;;2.17;;
20391;SDS011;10355;53.688;10.078;2023-05-10T00:54:00;3.15;;;2.20;;
20391;SDS011;10355;53.688;10.078;2023-05-10T00:56:43;3.10;;;2.20;;
20391;SDS011;10355;53.688;10.078;2023-05-10T00:59:31;8.73;;;2.47;;
20391;SDS011;10355;53.688;10.078;2023-05-10T01:02:14;3.75;;;2.45;;
20391;SDS011;10355;53.688;10.078;2023-05-10T01:04:56;4.07;;;2.17;;
20391;SDS011;10355;53.688;10.078;2023-05-10T01:07:39;4.35;;;2.28;;
20391;SDS011;10355;53.688;10.078;2023-05-10T01:10:23;3.88;;;2.25;;
20391;SDS011;10355;53.688;10.078;2023-05-10T01:13:06;4.00;;;2.30;;
20391;SDS011;10355;53.688;10.078;2023-05-10T01:15:50;3.35;;;2.47;;
20391;SDS011;10355;53.688;10.078;2023-05-10T01:18:33;4.05;;;2.30;;
20391;SDS011;10355;53.688;10.078;2023-05-10T01:21:19;4.38;;;2.25;;
20391;SDS011;10355;53.688;10.078;2023-05-10T01:30:15;5.85;;;2.10;;
20391;SDS011;10355;53.688;10.078;2023-05-10T01:33:08;5.35;;;2.05;;
20391;SDS011;10355;53.688;10.078;2023-05-10T01:35:55;4.38;;;1.90;;
20391;SDS011;10355;53.688;10.078;2023-05-10T01:38:42;2.95;;;1.92;;
20391;SDS011;10355;53.688;10.078;2023-05-10T01:41:28;3.85;;;2.50;;
20391;SDS011;10355;53.688;10.078;2023-05-10T01:44:15;4.22;;;2.20;;
20391;SDS011;10355;53.688;10.078;2023-05-10T01:47:01;6.10;;;2.67;;
20391;SDS011;10355;53.688;10.078;2023-05-10T01:49:49;2.78;;;2.15;;
20391;SDS011;10355;53.688;10.078;2023-05-10T01:52:33;2.75;;;2.10;;
20391;SDS011;10355;53.688;10.078;2023-05-10T01:55:20;4.25;;;2.30;;
20391;SDS011;10355;53.688;10.078;2023-05-10T01:58:04;4.93;;;2.35;;
20391;SDS011;10355;53.688;10.078;2023-05-10T02:00:48;5.65;;;2.35;;
20391;SDS011;10355;53.688;10.078;2023-05-10T02:03:32;3.20;;;2.10;;
20391;SDS011;10355;53.688;10.078;2023-05-10T02:06:19;3.15;;;2.25;;
20391;SDS011;10355;53.688;10.078;2023-05-10T02:09:02;3.67;;;2.30;;
20391;SDS011;10355;53.688;10.078;2023-05-10T02:11:45;4.07;;;2.10;;
20391;SDS011;10355;53.688;10.078;2023-05-10T02:14:30;3.85;;;2.38;;
20391;SDS011;10355;53.688;10.078;2023-05-10T02:17:14;4.97;;;2.40;;
20391;SDS011;10355;53.688;10.078;2023-05-10T02:19:57;7.30;;;2.33;;
20391;SDS011;10355;53.688;10.078;2023-05-10T02:22:42;3.38;;;2.30;;
20391;SDS011;10355;53.688;10.078;2023-05-10T02:25:25;7.70;;;2.60;;
20391;SDS011;10355;53.688;10.078;2023-05-10T02:28:08;4.88;;;2.35;;
20391;SDS011;10355;53.688;10.078;2023-05-10T02:30:51;4.68;;;2.33;;
20391;SDS011;10355;53.688;10.078;2023-05-10T02:33:34;3.40;;;2.25;;
20391;SDS011;10355;53.688;10.078;2023-05-10T02:36:17;3.67;;;2.33;;
20391;SDS011;10355;53.688;10.078;2023-05-10T02:39:02;3.10;;;2.17;;
20391;SDS011;10355;53.688;10.078;2023-05-10T02:41:45;8.60;;;2.60;;
20391;SDS011;10355;53.688;10.078;2023-05-10T02:44:31;3.50;;;2.35;;
20391;SDS011;10355;53.688;10.078;2023-05-10T02:47:14;4.00;;;2.38;;
20391;SDS011;10355;53.688;10.078;2023-05-10T02:49:57;4.47;;;2.42;;
20391;SDS011;10355;53.688;10.078;2023-05-10T02:52:40;3.75;;;2.45;;
20391;SDS011;10355;53.688;10.078;2023-05-10T02:55:26;2.60;;;2.20;;
20391;SDS011;10355;53.688;10.078;2023-05-10T02:58:13;3.08;;;2.35;;
20391;SDS011;10355;53.688;10.078;2023-05-10T03:00:56;3.65;;;2.38;;
20391;SDS011;10355;53.688;10.078;2023-05-10T03:03:40;3.38;;;2.30;;
20391;SDS011;10355;53.688;10.078;2023-05-10T03:06:23;3.92;;;2.20;;
20391;SDS011;10355;53.688;10.078;2023-05-10T03:09:06;4.07;;;2.42;;
20391;SDS011;10355;53.688;10.078;2023-05-10T03:11:54;3.70;;;2.47;;
20391;SDS011;10355;53.688;10.078;2023-05-10T03:14:43;4.13;;;2.42;;
20391;SDS011;10355;53.688;10.078;2023-05-10T03:17:29;3.70;;;2.40;;
20391;SDS011;10355;53.688;10.078;2023-05-10T03:20:13;6.07;;;2.10;;
20391;SDS011;10355;53.688;10.078;2023-05-10T03:23:00;5.30;;;2.42;;
20391;SDS011;10355;53.688;10.078;2023-05-10T03:25:48;3.05;;;2.40;;
20391;SDS011;10355;53.688;10.078;2023-05-10T03:28:32;7.20;;;2.42;;
20391;SDS011;10355;53.688;10.078;2023-05-10T03:31:18;4.95;;;2.63;;
20391;SDS011;10355;53.688;10.078;2023-05-10T03:34:01;4.28;;;2.10;;
20391;SDS011;10355;53.688;10.078;2023-05-10T03:36:43;4.13;;;2.33;;
20391;SDS011;10355;53.688;10.078;2023-05-10T03:39:26;3.33;;;2.25;;
20391;SDS011;10355;53.688;10.078;2023-05-10T03:42:12;3.38;;;2.50;;
20391;SDS011;10355;53.688;10.078;2023-05-10T03:44:56;3.30;;;2.10;;
20391;SDS011;10355;53.688;10.078;2023-05-10T03:47:39;2.75;;;2.42;;
20391;SDS011;10355;53.688;10.078;2023-05-10T03:50:22;4.82;;;2.60;;
20391;SDS011;10355;53.688;10.078;2023-05-10T03:53:04;6.63;;;2.70;;
20391;SDS011;10355;53.688;10.078;2023-05-10T03:55:47;3.38;;;2.33;;
20391;SDS011;10355;53.688;10.078;2023-05-10T03:58:30;3.25;;;2.30;;
20391;SDS011;10355;53.688;10.078;2023-05-10T04:01:14;3.28;;;2.58;;
20391;SDS011;10355;53.688;10.078;2023-05-10T04:03:56;5.00;;;2.40;;
20391;SDS011;10355;53.688;10.078;2023-05-10T04:06:40;5.68;;;2.40;;
20391;SDS011;10355;53.688;10.078;2023-05-10T04:09:22;6.05;;;2.30;;
20391;SDS011;10355;53.688;10.078;2023-05-10T04:12:05;5.55;;;2.80;;
20391;SDS011;10355;53.688;10.078;2023-05-10T04:14:51;4.35;;;2.42;;
20391;SDS011;10355;53.688;10.078;2023-05-10T04:17:35;3.33;;;2.42;;
20391;SDS011;10355;53.688;10.078;2023-05-10T04:20:17;3.75;;;2.40;;
20391;SDS011;10355;53.688;10.078;2023-05-10T04:23:00;5.57;;;2.47;;
20391;SDS011;10355;53.688;10.078;2023-05-10T04:25:43;4.43;;;2.38;;
20391;SDS011;10355;53.688;10.078;2023-05-10T04:28:25;4.53;;;2.65;;
20391;SDS011;10355;53.688;10.078;2023-05-10T04:31:09;4.93;;;2.55;;
20391;SDS011;10355;53.688;10.078;2023-05-10T04:33:53;3.85;;;2.40;;
20391;SDS011;10355;53.688;10.078;2023-05-10T04:36:35;5.47;;;2.47;;
20391;SDS011;10355;53.688;10.078;2023-05-10T04:39:18;3.53;;;2.30;;
20391;SDS011;10355;53.688;10.078;2023-05-10T04:42:01;3.70;;;2.28;;
20391;SDS011;10355;53.688;10.078;2023-05-10T04:44:44;3.92;;;2.47;;
20391;SDS011;10355;53.688;10.078;2023-05-10T04:47:27;3.92;;;2.28;;
20391;SDS011;10355;53.688;10.078;2023-05-10T04:50:11;5.63;;;2.28;;
20391;SDS011;10355;53.688;10.078;2023-05-10T04:52:53;4.78;;;2.53;;
20391;SDS011;10355;53.688;10.078;2023-05-10T04:55:36;5.43;;;2.55;;
20391;SDS011;10355;53.688;10.078;2023-05-10T04:58:19;3.63;;;2.58;;
20391;SDS011;10355;53.688;10.078;2023-05-10T05:01:05;3.97;;;2.53;;
20391;SDS011;10355;53.688;10.078;2023-05-10T05:03:48;3.58;;;2.65;;
20391;SDS011;10355;53.688;10.078;2023-05-10T05:06:32;4.43;;;2.40;;
20391;SDS011;10355;53.688;10.078;2023-05-10T05:09:15;9.15;;;2.63;;
20391;SDS011;10355;53.688;10.078;2023-05-10T05:12:00;3.92;;;2.72;;
20391;SDS011;10355;53.688;10.078;2023-05-10T05:14:43;5.22;;;2.63;;
20391;SDS011;10355;53.688;10.078;2023-05-10T05:17:26;5.10;;;2.67;;
20391;SDS011;10355;53.688;10.078;2023-05-10T05:20:10;5.78;;;2.42;;
20391;SDS011;10355;53.688;10.078;2023-05-10T05:22:55;5.68;;;2.88;;
20391;SDS011;10355;53.688;10.078;2023-05-10T05:25:41;3.42;;;2.25;;
20391;SDS011;10355;53.688;10.078;2023-05-10T05:28:27;4.70;;;2.80;;
20391;SDS011;10355;53.688;10.078;2023-05-10T05:31:14;4.00;;;2.53;;
20391;SDS011;10355;53.688;10.078;2023-05-10T05:33:56;4.75;;;2.42;;
20391;SDS011;10355;53.688;10.078;2023-05-10T05:36:39;4.60;;;2.60;;
20391;SDS011;10355;53.688;10.078;2023-05-10T05:39:23;9.02;;;2.88;;
20391;SDS011;10355;53.688;10.078;2023-05-10T05:42:06;5.10;;;2.63;;
20391;SDS011;10355;53.688;10.078;2023-05-10T05:44:48;5.07;;;2.70;;
20391;SDS011;10355;53.688;10.078;2023-05-10T05:47:31;3.40;;;2.55;;
20391;SDS011;10355;53.688;10.078;2023-05-10T05:50:13;4.60;;;2.70;;
20391;SDS011;10355;53.688;10.078;2023-05-10T05:52:56;4.60;;;2.70;;
20391;SDS011;10355;53.688;10.078;2023-05-10T05:55:40;6.05;;;2.75;;
20391;SDS011;10355;53.688;10.078;2023-05-10T05:58:23;5.88;;;2.78;;
20391;SDS011;10355;53.688;10.078;2023-05-10T06:01:06;4.75;;;2.83;;
20391;SDS011;10355;53.688;10.078;2023-05-10T06:03:48;4.45;;;2.67;;
20391;SDS011;10355;53.688;10.078;2023-05-10T06:06:33;4.07;;;2.90;;
20391;SDS011;10355;53.688;10.078;2023-05-10T06:09:16;4.32;;;2.80;;
20391;SDS011;10355;53.688;10.078;2023-05-10T06:12:00;3.58;;;2.58;;
20391;SDS011;10355;53.688;10.078;2023-05-10T06:14:42;5.65;;;2.70;;
20391;SDS011;10355;53.688;10.078;2023-05-10T06:17:25;6.15;;;2.97;;
20391;SDS011;10355;53.688;10.078;2023-05-10T06:20:09;3.75;;;2.58;;
20391;SDS011;10355;53.688;10.078;2023-05-10T06:22:52;3.55;;;2.60;;
20391;SDS011;10355;53.688;10.078;2023-05-10T06:25:34;7.32;;;3.10;;
20391;SDS011;10355;53.688;10.078;2023-05-10T06:28:18;3.75;;;2.65;;
20391;SDS011;10355;53.688;10.078;2023-05-10T06:31:01;3.38;;;2.65;;
20391;SDS011;10355;53.688;10.078;2023-05-10T06:33:44;5.03;;;2.90;;
20391;SDS011;10355;53.688;10.078;2023-05-10T06:36:27;3.80;;;2.72;;
20391;SDS011;10355;53.688;10.078;2023-05-10T06:39:10;4.43;;;2.40;;
20391;SDS011;10355;53.688;10.078;2023-05-10T06:41:53;5.47;;;2.80;;
20391;SDS011;10355;53.688;10.078;2023-05-10T06:44:37;5.78;;;3.20;;
20391;SDS011;10355;53.688;10.078;2023-05-10T06:47:19;3.67;;;2.70;;
20391;SDS011;10355;53.688;10.078;2023-05-10T06:50:04;3.80;;;2.67;;
20391;SDS011;10355;53.688;10.078;2023-05-10T06:52:47;5.20;;;2.80;;
20391;SDS011;10355;53.688;10.078;2023-05-10T06:55:33;4.93;;;2.70;;
20391;SDS011;10355;53.688;10.078;2023-05-10T06:58:15;3.80;;;2.63;;
20391;SDS011;10355;53.688;10.078;2023-05-10T07:01:02;3.05;;;2.35;;
20391;SDS011;10355;53.688;10.078;2023-05-10T07:03:46;5.38;;;2.55;;
20391;SDS011;10355;53.688;10.078;2023-05-10T07:06:29;3.78;;;2.65;;
20391;SDS011;10355;53.688;10.078;2023-05-10T07:09:14;7.32;;;2.92;;
20391;SDS011;10355;53.688;10.078;2023-05-10T07:11:57;3.22;;;2.38;;
20391;SDS011;10355;53.688;10.078;2023-05-10T07:14:39;3.17;;;2.45;;
20391;SDS011;10355;53.688;10.078;2023-05-10T07:17:23;6.10;;;2.60;;
20391;SDS011;10355;53.688;10.078;2023-05-10T07:20:07;6.82;;;2.58;;
20391;SDS011;10355;53.688;10.078;2023-05-10T07:22:50;5.97;;;3.30;;
20391;SDS011;10355;53.688;10.078;2023-05-10T07:25:32;4.57;;;2.80;;
20391;SDS011;10355;53.688;10.078;2023-05-10T07:28:15;4.38;;;2.95;;
20391;SDS011;10355;53.688;10.078;2023-05-10T07:30:58;4.80;;;2.67;;
20391;SDS011;10355;53.688;10.078;2023-05-10T07:33:42;3.30;;;2.58;;
20391;SDS011;10355;53.688;10.078;2023-05-10T07:36:25;7.10;;;2.80;;
20391;SDS011;10355;53.688;10.078;2023-05-10T07:39:07;4.55;;;2.75;;
20391;SDS011;10355;53.688;10.078;2023-05-10T07:41:53;4.68;;;2.53;;
20391;SDS011;10355;53.688;10.078;2023-05-10T07:44:35;6.30;;;2.83;;
20391;SDS011;10355;53.688;10.078;2023-05-10T07:47:18;4.68;;;2.80;;
20391;SDS011;10355;53.688;10.078;2023-05-10T07:50:02;6.43;;;2.90;;
20391;SDS011;10355;53.688;10.078;2023-05-10T07:52:45;3.33;;;2.60;;
20391;SDS011;10355;53.688;10.078;2023-05-10T07:55:28;5.82;;;2.88;;
20391;SDS011;10355;53.688;10.078;2023-05-10T07:58:11;4.40;;;2.92;;
20391;SDS011;10355;53.688;10.078;2023-05-10T08:00:53;7.30;;;2.58;;
20391;SDS011;10355;53.688;10.078;2023-05-10T08:03:36;4.55;;;2.88;;
20391;SDS011;10355;53.688;10.078;2023-05-10T08:06:20;4.60;;;3.08;;
20391;SDS011;10355;53.688;10.078;2023-05-10T08:09:03;6.15;;;2.85;;
20391;SDS011;10355;53.688;10.078;2023-05-10T08:11:46;4.18;;;2.55;;
20391;SDS011;10355;53.688;10.078;2023-05-10T08:14:29;5.57;;;2.78;;
20391;SDS011;10355;53.688;10.078;2023-05-10T08:17:11;4.43;;;3.10;;
20391;SDS011;10355;53.688;10.078;2023-05-10T08:19:54;4.68;;;3.00;;
20391;SDS011;10355;53.688;10.078;2023-05-10T08:22:38;4.70;;;3.00;;
20391;SDS011;10355;53.688;10.078;2023-05-10T08:25:21;4.50;;;3.17;;
20391;SDS011;10355;53.688;10.078;2023-05-10T08:28:04;6.85;;;2.97;;
20391;SDS011;10355;53.688;10.078;2023-05-10T08:30:46;4.40;;;2.95;;
20391;SDS011;10355;53.688;10.078;2023-05-10T08:33:29;4.95;;;3.10;;
20391;SDS011;10355;53.688;10.078;2023-05-10T08:36:12;7.97;;;2.70;;
20391;SDS011;10355;53.688;10.078;2023-05-10T08:39:02;5.68;;;2.85;;
20391;SDS011;10355;53.688;10.078;2023-05-10T08:41:48;4.97;;;2.70;;
20391;SDS011;10355;53.688;10.078;2023-05-10T08:44:31;4.13;;;2.80;;
20391;SDS011;10355;53.688;10.078;2023-05-10T08:47:15;4.25;;;2.80;;
20391;SDS011;10355;53.688;10.078;2023-05-10T08:49:58;4.10;;;2.70;;
20391;SDS011;10355;53.688;10.078;2023-05-10T08:52:41;7.60;;;3.05;;
20391;SDS011;10355;53.688;10.078;2023-05-10T08:55:26;4.00;;;2.85;;
20391;SDS011;10355;53.688;10.078;2023-05-10T08:58:09;4.90;;;2.97;;
20391;SDS011;10355;53.688;10.078;2023-05-10T09:00:52;4.80;;;2.72;;
20391;SDS011;10355;53.688;10.078;2023-05-10T09:03:35;3.90;;;2.63;;
20391;SDS011;10355;53.688;10.078;2023-05-10T09:06:17;5.22;;;2.72;;
20391;SDS011;10355;53.688;10.078;2023-05-10T09:09:00;6.88;;;2.90;;
20391;SDS011;10355;53.688;10.078;2023-05-10T09:11:46;4.22;;;2.67;;
20391;SDS011;10355;53.688;10.078;2023-05-10T09:14:29;5.85;;;2.85;;
20391;SDS011;10355;53.688;10.078;2023-05-10T09:17:11;5.00;;;3.00;;
20391;SDS011;10355;53.688;10.078;2023-05-10T09:19:57;5.45;;;3.25;;
20391;SDS011;10355;53.688;10.078;2023-05-10T09:22:39;5.07;;;3.03;;
20391;SDS011;10355;53.688;10.078;2023-05-10T09:25:23;4.85;;;3.00;;
20391;SDS011;10355;53.688;10.078;2023-05-10T09:28:08;5.07;;;2.92;;
20391;SDS011;10355;53.688;10.078;2023-05-10T09:30:52;5.38;;;2.78;;
20391;SDS011;10355;53.688;10.078;2023-05-10T09:33:43;5.25;;;2.70;;
20391;SDS011;10355;53.688;10.078;2023-05-10T09:36:26;4.15;;;2.90;;
20391;SDS011;10355;53.688;10.078;2023-05-10T09:39:09;4.70;;;3.10;;
20391;SDS011;10355;53.688;10.078;2023-05-10T09:41:51;5.93;;;3.10;;
20391;SDS011;10355;53.688;10.078;2023-05-10T09:44:36;4.38;;;3.05;;
20391;SDS011;10355;53.688;10.078;2023-05-10T09:47:19;3.80;;;2.45;;
20391;SDS011;10355;53.688;10.078;2023-05-10T09:50:02;5.70;;;3.08;;
20391;SDS011;10355;53.688;10.078;2023-05-10T09:52:46;4.97;;;2.70;;
20391;SDS011;10355;53.688;10.078;2023-05-10T09:55:37;3.70;;;2.55;;
20391;SDS011;10355;53.688;10.078;2023-05-10T09:58:21;4.07;;;2.97;;
20391;SDS011;10355;53.688;10.078;2023-05-10T10:01:05;4.18;;;3.05;;
20391;SDS011;10355;53.688;10.078;2023-05-10T10:03:53;6.15;;;3.00;;
20391;SDS011;10355;53.688;10.078;2023-05-10T10:06:36;5.45;;;3.17;;
20391;SDS011;10355;53.688;10.078;2023-05-10T10:09:19;4.10;;;2.92;;
20391;SDS011;10355;53.688;10.078;2023-05-10T10:12:02;6.07;;;3.22;;
20391;SDS011;10355;53.688;10.078;2023-05-10T10:14:45;4.45;;;3.10;;
20391;SDS011;10355;53.688;10.078;2023-05-10T10:17:29;4.82;;;3.17;;
20391;SDS011;10355;53.688;10.078;2023-05-10T10:20:13;6.15;;;3.00;;
20391;SDS011;10355;53.688;10.078;2023-05-10T10:22:56;4.82;;;3.30;;
20391;SDS011;10355;53.688;10.078;2023-05-10T10:25:39;5.63;;;3.40;;
20391;SDS011;10355;53.688;10.078;2023-05-10T10:28:24;4.80;;;3.60;;
20391;SDS011;10355;53.688;10.078;2023-05-10T10:31:13;5.32;;;3.45;;
20391;SDS011;10355;53.688;10.078;2023-05-10T10:34:03;5.07;;;3.60;;
20391;SDS011;10355;53.688;10.078;2023-05-10T10:36:46;7.45;;;3.72;;
20391;SDS011;10355;53.688;10.078;2023-05-10T10:39:29;6.15;;;3.60;;
20391;SDS011;10355;53.688;10.078;2023-05-10T10:42:12;7.18;;;3.70;;
20391;SDS011;10355;53.688;10.078;2023-05-10T10:45:05;5.40;;;3.95;;
20391;SDS011;10355;53.688;10.078;2023-05-10T10:50:57;8.60;;;4.40;;
20391;SDS011;10355;53.688;10.078;2023-05-10T10:53:40;9.57;;;4.40;;
20391;SDS011;10355;53.688;10.078;2023-05-10T10:56:23;7.95;;;4.45;;
20391;SDS011;10355;53.688;10.078;2023-05-10T10:59:05;6.68;;;4.43;;
20391;SDS011;10355;53.688;10.078;2023-05-10T11:01:51;6.40;;;4.35;;
20391;SDS011;10355;53.688;10.078;2023-05-10T11:04:41;7.35;;;4.13;;
20391;SDS011;10355;53.688;10.078;2023-05-10T11:07:26;5.82;;;4.15;;
20391;SDS011;10355;53.688;10.078;2023-05-10T11:10:09;9.73;;;4.45;;
20391;SDS011;10355;53.688;10.078;2023-05-10T11:12:52;6.75;;;4.40;;
20391;SDS011;10355;53.688;10.078;2023-05-10T11:15:36;7.10;;;4.50;;
20391;SDS011;10355;53.688;10.078;2023-05-10T11:18:19;6.28;;;4.45;;
20391;SDS011;10355;53.688;10.078;2023-05-10T11:21:02;8.35;;;4.80;;
20391;SDS011;10355;53.688;10.078;2023-05-10T11:23:51;7.78;;;4.78;;
20391;SDS011;10355;53.688;10.078;2023-05-10T11:26:37;9.60;;;4.90;;
20391;SDS011;10355;53.688;10.078;2023-05-10T11:29:20;8.02;;;4.80;;
20391;SDS011;10355;53.688;10.078;2023-05-10T11:32:02;7.28;;;4.88;;
20391;SDS011;10355;53.688;10.078;2023-05-10T11:34:49;8.68;;;5.10;;
20391;SDS011;10355;53.688;10.078;2023-05-10T11:37:32;7.10;;;4.78;;
20391;SDS011;10355;53.688;10.078;2023-05-10T11:40:17;10.30;;;4.95;;
20391;SDS011;10355;53.688;10.078;2023-05-10T11:43:00;6.78;;;4.70;;
20391;SDS011;10355;53.688;10.078;2023-05-10T11:45:43;8.05;;;4.53;;
20391;SDS011;10355;53.688;10.078;2023-05-10T11:48:27;9.63;;;4.35;;
20391;SDS011;10355;53.688;10.078;2023-05-10T11:51:11;8.65;;;4.72;;
20391;SDS011;10355;53.688;10.078;2023-05-10T11:53:55;5.43;;;3.92;;
20391;SDS011;10355;53.688;10.078;2023-05-10T11:56:40;11.02;;;4.65;;
20391;SDS011;10355;53.688;10.078;2023-05-10T11:59:22;7.22;;;4.55;;
20391;SDS011;10355;53.688;10.078;2023-05-10T12:02:05;5.03;;;3.90;;
20391;SDS011;10355;53.688;10.078;2023-05-10T12:04:48;8.00;;;4.80;;
20391;SDS011;10355;53.688;10.078;2023-05-10T12:07:31;6.88;;;4.55;;
20391;SDS011;10355;53.688;10.078;2023-05-10T12:10:13;5.05;;;3.97;;
20391;SDS011;10355;53.688;10.078;2023-05-10T12:12:59;8.43;;;4.78;;
20391;SDS011;10355;53.688;10.078;2023-05-10T12:15:42;9.25;;;4.57;;
20391;SDS011;10355;53.688;10.078;2023-05-10T12:18:25;7.15;;;4.38;;
20391;SDS011;10355;53.688;10.078;2023-05-10T12:21:09;6.68;;;4.70;;
20391;SDS011;10355;53.688;10.078;2023-05-10T12:23:52;7.85;;;4.82;;
20391;SDS011;10355;53.688;10.078;2023-05-10T12:26:35;7.65;;;5.00;;
20391;SDS011;10355;53.688;10.078;2023-05-10T12:29:19;8.73;;;5.53;;
20391;SDS011;10355;53.688;10.078;2023-05-10T12:32:02;9.55;;;6.10;;
20391;SDS011;10355;53.688;10.078;2023-05-10T12:34:46;8.95;;;5.85;;
20391;SDS011;10355;53.688;10.078;2023-05-10T12:37:28;7.70;;;5.57;;
20391;SDS011;10355;53.688;10.078;2023-05-10T12:40:11;9.38;;;6.07;;
20391;SDS011;10355;53.688;10.078;2023-05-10T12:42:54;8.98;;;6.00;;
20391;SDS011;10355;53.688;10.078;2023-05-10T12:45:38;10.98;;;5.57;;
20391;SDS011;10355;53.688;10.078;2023-05-10T12:48:21;8.88;;;5.68;;
20391;SDS011;10355;53.688;10.078;2023-05-10T12:51:04;8.35;;;5.40;;
20391;SDS011;10355;53.688;10.078;2023-05-10T12:53:50;9.60;;;6.10;;
20391;SDS011;10355;53.688;10.078;2023-05-10T12:56:33;7.30;;;5.50;;
20391;SDS011;10355;53.688;10.078;2023-05-10T12:59:16;10.85;;;5.55;;
20391;SDS011;10355;53.688;10.078;2023-05-10T13:02:00;7.78;;;5.72;;
20391;SDS011;10355;53.688;10.078;2023-05-10T13:04:43;6.72;;;5.40;;
20391;SDS011;10355;53.688;10.078;2023-05-10T13:07:26;7.93;;;5.55;;
20391;SDS011;10355;53.688;10.078;2023-05-10T13:10:08;6.75;;;5.88;;
20391;SDS011;10355;53.688;10.078;2023-05-10T13:12:51;6.53;;;5.28;;
20391;SDS011;10355;53.688;10.078;2023-05-10T13:15:34;8.07;;;5.35;;
20391;SDS011;10355;53.688;10.078;2023-05-10T13:18:18;7.18;;;5.25;;
20391;SDS011;10355;53.688;10.078;2023-05-10T13:21:01;8.40;;;4.70;;
20391;SDS011;10355;53.688;10.078;2023-05-10T13:23:45;6.43;;;4.80;;
20391;SDS011;10355;53.688;10.078;2023-05-10T13:26:28;7.05;;;4.93;;
20391;SDS011;10355;53.688;10.078;2023-05-10T13:29:11;6.50;;;4.55;;
20391;SDS011;10355;53.688;10.078;2023-05-10T13:31:53;6.32;;;4.63;;
20391;SDS011;10355;53.688;10.078;2023-05-10T13:34:37;4.88;;;3.88;;
20391;SDS011;10355;53.688;10.078;2023-05-10T13:37:20;8.07;;;4.30;;
20391;SDS011;10355;53.688;10.078;2023-05-10T13:40:03;5.40;;;4.28;;
20391;SDS011;10355;53.688;10.078;2023-05-10T13:42:46;5.80;;;4.22;;
20391;SDS011;10355;53.688;10.078;2023-05-10T13:45:29;5.22;;;3.70;;
20391;SDS011;10355;53.688;10.078;2023-05-10T13:48:12;5.38;;;4.05;;
20391;SDS011;10355;53.688;10.078;2023-05-10T13:50:56;7.28;;;4.38;;
20391;SDS011;10355;53.688;10.078;2023-05-10T13:53:38;5.60;;;4.00;;
20391;SDS011;10355;53.688;10.078;2023-05-10T13:56:21;6.25;;;4.57;;
20391;SDS011;10355;53.688;10.078;2023-05-10T13:59:04;5.35;;;3.75;;
20391;SDS011;10355;53.688;10.078;2023-05-10T14:01:46;6.47;;;3.45;;
20391;SDS011;10355;53.688;10.078;2023-05-10T14:04:29;4.38;;;3.55;;
20391;SDS011;10355;53.688;10.078;2023-05-10T14:07:14;6.28;;;3.80;;
20391;SDS011;10355;53.688;10.078;2023-05-10T14:09:57;4.65;;;3.33;;
20391;SDS011;10355;53.688;10.078;2023-05-10T14:12:39;5.65;;;3.45;;
20391;SDS011;10355;53.688;10.078;2023-05-10T14:15:22;5.30;;;3.50;;
20391;SDS011;10355;53.688;10.078;2023-05-10T14:18:05;4.82;;;3.30;;
20391;SDS011;10355;53.688;10.078;2023-05-10T14:20:47;4.13;;;3.00;;
20391;SDS011;10355;53.688;10.078;2023-05-10T14:23:31;4.43;;;3.10;;
20391;SDS011;10355;53.688;10.078;2023-05-10T14:26:14;4.13;;;3.10;;
20391;SDS011;10355;53.688;10.078;2023-05-10T14:28:57;4.85;;;3.50;;
20391;SDS011;10355;53.688;10.078;2023-05-10T14:31:40;4.57;;;3.47;;
20391;SDS011;10355;53.688;10.078;2023-05-10T14:34:23;4.55;;;3.45;;
20391;SDS011;10355;53.688;10.078;2023-05-10T14:37:05;4.50;;;3.35;;
20391;SDS011;10355;53.688;10.078;2023-05-10T14:39:49;4.40;;;3.20;;
20391;SDS011;10355;53.688;10.078;2023-05-10T14:42:32;5.47;;;3.58;;
20391;SDS011;10355;53.688;10.078;2023-05-10T14:45:15;5.97;;;3.35;;
20391;SDS011;10355;53.688;10.078;2023-05-10T14:47:58;5.40;;;3.50;;
20391;SDS011;10355;53.688;10.078;2023-05-10T14:50:41;5.22;;;3.35;;
20391;SDS011;10355;53.688;10.078;2023-05-10T14:53:23;5.05;;;3.00;;
20391;SDS011;10355;53.688;10.078;2023-05-10T14:56:08;4.40;;;3.17;;
20391;SDS011;10355;53.688;10.078;2023-05-10T14:58:50;6.72;;;3.50;;
20391;SDS011;10355;53.688;10.078;2023-05-10T15:01:34;4.85;;;3.10;;
20391;SDS011;10355;53.688;10.078;2023-05-10T15:04:19;4.45;;;3.28;;
20391;SDS011;10355;53.688;10.078;2023-05-10T15:07:03;3.95;;;3.10;;
20391;SDS011;10355;53.688;10.078;2023-05-10T15:09:45;4.45;;;3.50;;
20391;SDS011;10355;53.688;10.078;2023-05-10T15:12:29;3.47;;;3.00;;
20391;SDS011;10355;53.688;10.078;2023-05-10T15:15:12;4.45;;;3.10;;
20391;SDS011;10355;53.688;10.078;2023-05-10T15:17:55;3.75;;;3.28;;
20391;SDS011;10355;53.688;10.078;2023-05-10T15:20:38;3.50;;;2.90;;
20391;SDS011;10355;53.688;10.078;2023-05-10T15:23:21;5.07;;;3.20;;
20391;SDS011;10355;53.688;10.078;2023-05-10T15:26:04;6.97;;;3.60;;
20391;SDS011;10355;53.688;10.078;2023-05-10T15:28:48;4.47;;;3.20;;
20391;SDS011;10355;53.688;10.078;2023-05-10T15:31:31;5.80;;;3.30;;
20391;SDS011;10355;53.688;10.078;2023-05-10T15:34:16;3.92;;;2.90;;
20391;SDS011;10355;53.688;10.078;2023-05-10T15:37:01;7.13;;;3.60;;
20391;SDS011;10355;53.688;10.078;2023-05-10T15:39:44;4.53;;;2.83;;
20391;SDS011;10355;53.688;10.078;2023-05-10T15:42:26;4.03;;;2.90;;
20391;SDS011;10355;53.688;10.078;2023-05-10T15:45:11;6.00;;;3.20;;
20391;SDS011;10355;53.688;10.078;2023-05-10T15:47:53;6.55;;;3.20;;
20391;SDS011;10355;53.688;10.078;2023-05-10T15:50:36;4.38;;;2.50;;
20391;SDS011;10355;53.688;10.078;2023-05-10T15:53:23;3.13;;;2.50;;
20391;SDS011;10355;53.688;10.078;2023-05-10T15:56:06;4.30;;;2.72;;
20391;SDS011;10355;53.688;10.078;2023-05-10T15:58:49;2.97;;;2.50;;
20391;SDS011;10355;53.688;10.078;2023-05-10T16:01:36;4.10;;;2.80;;
20391;SDS011;10355;53.688;10.078;2023-05-10T16:04:18;3.75;;;2.67;;
20391;SDS011;10355;53.688;10.078;2023-05-10T16:07:01;4.18;;;2.67;;
20391;SDS011;10355;53.688;10.078;2023-05-10T16:09:44;4.10;;;2.60;;
20391;SDS011;10355;53.688;10.078;2023-05-10T16:12:26;4.25;;;2.65;;
20391;SDS011;10355;53.688;10.078;2023-05-10T16:15:09;3.70;;;2.42;;
20391;SDS011;10355;53.688;10.078;2023-05-10T16:17:53;4.85;;;2.75;;
20391;SDS011;10355;53.688;10.078;2023-05-10T16:20:36;4.63;;;2.88;;